sensor_id;sensor_type;location;lat;lon;timestamp;temperature;humidity
14277;DHT22;7222;57.346;12.150;2023-05-29T00:00:30;8.10;99.90
14277;DHT22;7222;57.346;12.150;2023-05-29T00:02:58;8.10;99.90
14277;DHT22;7222;57.346;12.150;2023-05-29T00:05:28;8.00;99.90
14277;DHT22;7222;57.346;12.150;2023-05-29T00:07:55;8.00;99.90
14277;DHT22;7222;57.346;12.150;2023-05-29T00:10:22;7.90;99.90
14277;DHT22;7222;57.346;12.150;2023-05-29T00:12:49;7.90;99.90
14277;DHT22;7222;57.346;12.150;2023-05-29T00:15:16;7.80;99.90
14277;DHT22;7222;57.346;12.150;2023-05-29T00:17:43;7.70;99.90
14277;DHT22;7222;57.346;12.150;2023-05-29T00:20:11;7.70;99.90
14277;DHT22;7222;57.346;12.150;2023-05-29T00:22:40;7.60;99.90
14277;DHT22;7222;57.346;12.150;2023-05-29T00:25:08;7.60;99.90
14277;DHT22;7222;57.346;12.150;2023-05-29T00:27:35;7.50;99.90
14277;DHT22;7222;57.346;12.150;2023-05-29T00:30:03;7.40;99.90
14277;DHT22;7222;57.346;12.150;2023-05-29T00:32:31;7.40;99.90
14277;DHT22;7222;57.346;12.150;2023-05-29T00:34:58;7.30;99.90
14277;DHT22;7222;57.346;12.150;2023-05-29T00:37:25;7.30;99.90
14277;DHT22;7222;57.346;12.150;2023-05-29T00:39:53;7.20;99.90
14277;DHT22;7222;57.346;12.150;2023-05-29T00:42:20;7.10;99.90
14277;DHT22;7222;57.346;12.150;2023-05-29T00:44:47;7.10;99.90
14277;DHT22;7222;57.346;12.150;2023-05-29T00:47:14;7.00;99.90
14277;DHT22;7222;57.346;12.150;2023-05-29T00:49:42;7.00;99.90
14277;DHT22;7222;57.346;12.150;2023-05-29T00:52:09;6.90;99.90
14277;DHT22;7222;57.346;12.150;2023-05-29T00:54:37;6.80;99.90
14277;DHT22;7222;57.346;12.150;2023-05-29T00:57:05;6.80;99.90
14277;DHT22;7222;57.346;12.150;2023-05-29T00:59:33;6.70;99.90
14277;DHT22;7222;57.346;12.150;2023-05-29T01:02:02;6.70;99.90
14277;DHT22;7222;57.346;12.150;2023-05-29T01:04:29;6.60;99.90
14277;DHT22;7222;57.346;12.150;2023-05-29T01:06:59;6.60;99.90
14277;DHT22;7222;57.346;12.150;2023-05-29T01:09:27;6.50;99.90
14277;DHT22;7222;57.346;12.150;2023-05-29T01:12:03;6.50;1.00
14277;DHT22;7222;57.346;12.150;2023-05-29T01:17:28;6.40;1.00
14277;DHT22;7222;57.346;12.150;2023-05-29T01:20:08;6.30;1.00
14277;DHT22;7222;57.346;12.150;2023-05-29T01:22:45;6.20;1.00
14277;DHT22;7222;57.346;12.150;2023-05-29T01:25:19;6.20;1.00
14277;DHT22;7222;57.346;12.150;2023-05-29T01:27:50;6.10;1.00
14277;DHT22;7222;57.346;12.150;2023-05-29T01:30:20;6.10;1.00
14277;DHT22;7222;57.346;12.150;2023-05-29T01:32:49;6.00;1.00
14277;DHT22;7222;57.346;12.150;2023-05-29T01:35:17;6.00;1.00
14277;DHT22;7222;57.346;12.150;2023-05-29T01:37:44;5.90;1.00
14277;DHT22;7222;57.346;12.150;2023-05-29T01:40:11;5.90;1.00
14277;DHT22;7222;57.346;12.150;2023-05-29T01:42:39;5.80;1.00
14277;DHT22;7222;57.346;12.150;2023-05-29T01:45:08;5.80;1.00
14277;DHT22;7222;57.346;12.150;2023-05-29T01:47:36;5.80;1.00
14277;DHT22;7222;57.346;12.150;2023-05-29T01:50:05;5.70;1.00
14277;DHT22;7222;57.346;12.150;2023-05-29T01:52:32;5.70;1.00
14277;DHT22;7222;57.346;12.150;2023-05-29T01:55:00;5.60;1.00
14277;DHT22;7222;57.346;12.150;2023-05-29T01:57:28;5.60;99.90
14277;DHT22;7222;57.346;12.150;2023-05-29T01:59:55;5.50;1.00
14277;DHT22;7222;57.346;12.150;2023-05-29T02:02:24;5.50;1.00
14277;DHT22;7222;57.346;12.150;2023-05-29T02:04:50;5.50;1.00
14277;DHT22;7222;57.346;12.150;2023-05-29T02:07:17;5.40;1.00
14277;DHT22;7222;57.346;12.150;2023-05-29T02:09:44;5.40;1.00
14277;DHT22;7222;57.346;12.150;2023-05-29T02:12:11;5.30;1.00
14277;DHT22;7222;57.346;12.150;2023-05-29T02:14:38;5.30;1.00
14277;DHT22;7222;57.346;12.150;2023-05-29T02:17:05;5.30;1.00
14277;DHT22;7222;57.346;12.150;2023-05-29T02:19:34;5.20;1.00
14277;DHT22;7222;57.346;12.150;2023-05-29T02:22:02;5.20;1.00
14277;DHT22;7222;57.346;12.150;2023-05-29T02:24:29;5.20;99.90
14277;DHT22;7222;57.346;12.150;2023-05-29T02:26:56;5.10;99.90
14277;DHT22;7222;57.346;12.150;2023-05-29T02:29:22;5.10;1.00
14277;DHT22;7222;57.346;12.150;2023-05-29T02:31:49;5.00;99.90
14277;DHT22;7222;57.346;12.150;2023-05-29T02:34:16;5.00;99.90
14277;DHT22;7222;57.346;12.150;2023-05-29T02:36:44;5.10;99.90
14277;DHT22;7222;57.346;12.150;2023-05-29T02:39:11;5.10;91.30
14277;DHT22;7222;57.346;12.150;2023-05-29T02:41:38;4.90;99.90
14277;DHT22;7222;57.346;12.150;2023-05-29T02:44:05;4.80;1.00
14277;DHT22;7222;57.346;12.150;2023-05-29T02:46:32;4.90;1.00
14277;DHT22;7222;57.346;12.150;2023-05-29T02:48:59;4.80;1.00
14277;DHT22;7222;57.346;12.150;2023-05-29T02:51:25;4.70;58.00
14277;DHT22;7222;57.346;12.150;2023-05-29T02:53:54;4.70;99.90
14277;DHT22;7222;57.346;12.150;2023-05-29T02:56:21;4.70;99.90
14277;DHT22;7222;57.346;12.150;2023-05-29T02:58:49;4.60;99.90
14277;DHT22;7222;57.346;12.150;2023-05-29T03:01:16;4.60;99.90
14277;DHT22;7222;57.346;12.150;2023-05-29T03:03:43;4.70;1.00
14277;DHT22;7222;57.346;12.150;2023-05-29T03:06:10;4.60;99.90
14277;DHT22;7222;57.346;12.150;2023-05-29T03:08:38;4.70;1.00
14277;DHT22;7222;57.346;12.150;2023-05-29T03:11:07;4.90;99.90
14277;DHT22;7222;57.346;12.150;2023-05-29T03:13:34;5.10;99.90
14277;DHT22;7222;57.346;12.150;2023-05-29T03:16:02;4.90;1.00
14277;DHT22;7222;57.346;12.150;2023-05-29T03:18:29;4.80;1.00
14277;DHT22;7222;57.346;12.150;2023-05-29T03:20:56;4.70;99.90
14277;DHT22;7222;57.346;12.150;2023-05-29T03:23:22;4.70;1.00
14277;DHT22;7222;57.346;12.150;2023-05-29T03:25:49;4.60;1.00
14277;DHT22;7222;57.346;12.150;2023-05-29T03:28:18;5.00;99.90
14277;DHT22;7222;57.346;12.150;2023-05-29T03:30:44;5.10;99.90
14277;DHT22;7222;57.346;12.150;2023-05-29T03:33:12;5.10;99.90
14277;DHT22;7222;57.346;12.150;2023-05-29T03:35:38;5.10;99.90
14277;DHT22;7222;57.346;12.150;2023-05-29T03:38:05;4.50;99.90
14277;DHT22;7222;57.346;12.150;2023-05-29T03:40:32;4.30;80.20
14277;DHT22;7222;57.346;12.150;2023-05-29T03:42:59;4.80;99.90
14277;DHT22;7222;57.346;12.150;2023-05-29T03:45:27;4.80;99.90
14277;DHT22;7222;57.346;12.150;2023-05-29T03:47:54;5.20;99.90
14277;DHT22;7222;57.346;12.150;2023-05-29T03:50:21;5.20;99.90
14277;DHT22;7222;57.346;12.150;2023-05-29T03:52:48;4.80;99.90
14277;DHT22;7222;57.346;12.150;2023-05-29T03:55:15;4.50;99.90
14277;DHT22;7222;57.346;12.150;2023-05-29T03:57:41;4.80;99.90
14277;DHT22;7222;57.346;12.150;2023-05-29T04:00:10;5.20;99.90
14277;DHT22;7222;57.346;12.150;2023-05-29T04:02:39;5.30;99.90
14277;DHT22;7222;57.346;12.150;2023-05-29T04:05:07;5.40;99.90
14277;DHT22;7222;57.346;12.150;2023-05-29T04:07:35;5.50;99.90
14277;DHT22;7222;57.346;12.150;2023-05-29T04:10:05;5.70;99.90
14277;DHT22;7222;57.346;12.150;2023-05-29T04:12:32;5.80;99.90
14277;DHT22;7222;57.346;12.150;2023-05-29T04:14:59;5.80;99.90
14277;DHT22;7222;57.346;12.150;2023-05-29T04:17:26;5.90;99.90
14277;DHT22;7222;57.346;12.150;2023-05-29T04:19:55;6.00;99.90
14277;DHT22;7222;57.346;12.150;2023-05-29T04:22:22;6.00;99.90
14277;DHT22;7222;57.346;12.150;2023-05-29T04:24:49;6.10;99.90
14277;DHT22;7222;57.346;12.150;2023-05-29T04:27:16;6.00;99.90
14277;DHT22;7222;57.346;12.150;2023-05-29T04:29:43;6.10;99.90
14277;DHT22;7222;57.346;12.150;2023-05-29T04:32:10;6.20;99.90
14277;DHT22;7222;57.346;12.150;2023-05-29T04:34:38;6.40;99.90
14277;DHT22;7222;57.346;12.150;2023-05-29T04:37:06;6.70;99.90
14277;DHT22;7222;57.346;12.150;2023-05-29T04:39:33;6.90;99.90
14277;DHT22;7222;57.346;12.150;2023-05-29T04:42:00;6.90;99.90
14277;DHT22;7222;57.346;12.150;2023-05-29T04:44:27;6.70;99.90
14277;DHT22;7222;57.346;12.150;2023-05-29T04:46:55;6.60;99.90
14277;DHT22;7222;57.346;12.150;2023-05-29T04:49:22;6.60;99.90
14277;DHT22;7222;57.346;12.150;2023-05-29T04:51:49;6.80;99.90
14277;DHT22;7222;57.346;12.150;2023-05-29T04:54:21;7.00;99.90
14277;DHT22;7222;57.346;12.150;2023-05-29T04:56:48;7.00;99.90
14277;DHT22;7222;57.346;12.150;2023-05-29T04:59:15;7.20;99.90
14277;DHT22;7222;57.346;12.150;2023-05-29T05:01:42;7.40;99.90
14277;DHT22;7222;57.346;12.150;2023-05-29T05:04:09;7.60;99.90
14277;DHT22;7222;57.346;12.150;2023-05-29T05:06:36;7.80;99.90
14277;DHT22;7222;57.346;12.150;2023-05-29T05:09:04;8.10;99.90
14277;DHT22;7222;57.346;12.150;2023-05-29T05:11:32;8.20;99.90
14277;DHT22;7222;57.346;12.150;2023-05-29T05:13:59;8.60;99.90
14277;DHT22;7222;57.346;12.150;2023-05-29T05:16:26;8.80;99.90
14277;DHT22;7222;57.346;12.150;2023-05-29T05:18:53;9.00;99.90
14277;DHT22;7222;57.346;12.150;2023-05-29T05:21:20;9.20;99.90
14277;DHT22;7222;57.346;12.150;2023-05-29T05:23:47;9.40;99.90
14277;DHT22;7222;57.346;12.150;2023-05-29T05:26:13;9.50;99.90
14277;DHT22;7222;57.346;12.150;2023-05-29T05:28:42;9.70;99.90
14277;DHT22;7222;57.346;12.150;2023-05-29T05:31:09;9.90;96.70
14277;DHT22;7222;57.346;12.150;2023-05-29T05:33:36;10.10;99.90
14277;DHT22;7222;57.346;12.150;2023-05-29T05:36:03;10.30;1.00
14277;DHT22;7222;57.346;12.150;2023-05-29T05:38:30;10.30;1.00
14277;DHT22;7222;57.346;12.150;2023-05-29T05:40:57;10.30;1.00
14277;DHT22;7222;57.346;12.150;2023-05-29T05:43:24;10.40;1.00
14277;DHT22;7222;57.346;12.150;2023-05-29T05:45:54;10.60;99.90
14277;DHT22;7222;57.346;12.150;2023-05-29T05:48:21;10.70;99.90
14277;DHT22;7222;57.346;12.150;2023-05-29T05:50:47;10.80;1.00
14277;DHT22;7222;57.346;12.150;2023-05-29T05:53:14;10.90;1.00
14277;DHT22;7222;57.346;12.150;2023-05-29T05:55:42;11.00;1.00
14277;DHT22;7222;57.346;12.150;2023-05-29T05:58:09;11.10;1.00
14277;DHT22;7222;57.346;12.150;2023-05-29T06:00:36;11.20;60.50
14277;DHT22;7222;57.346;12.150;2023-05-29T06:03:05;11.30;1.00
14277;DHT22;7222;57.346;12.150;2023-05-29T06:05:32;11.30;99.90
14277;DHT22;7222;57.346;12.150;2023-05-29T06:07:59;11.40;99.90
14277;DHT22;7222;57.346;12.150;2023-05-29T06:10:26;11.50;1.00
14277;DHT22;7222;57.346;12.150;2023-05-29T06:12:53;11.50;1.00
14277;DHT22;7222;57.346;12.150;2023-05-29T06:15:20;11.70;99.90
14277;DHT22;7222;57.346;12.150;2023-05-29T06:17:47;11.80;99.90
14277;DHT22;7222;57.346;12.150;2023-05-29T06:20:18;11.80;1.00
14277;DHT22;7222;57.346;12.150;2023-05-29T06:22:45;12.10;37.40
14277;DHT22;7222;57.346;12.150;2023-05-29T06:25:15;12.20;1.00
14277;DHT22;7222;57.346;12.150;2023-05-29T06:27:43;12.30;99.90
14277;DHT22;7222;57.346;12.150;2023-05-29T06:30:11;12.40;1.00
14277;DHT22;7222;57.346;12.150;2023-05-29T06:32:38;12.50;99.90
14277;DHT22;7222;57.346;12.150;2023-05-29T06:35:06;12.70;1.00
14277;DHT22;7222;57.346;12.150;2023-05-29T06:37:35;12.80;41.80
14277;DHT22;7222;57.346;12.150;2023-05-29T06:40:02;12.90;65.20
14277;DHT22;7222;57.346;12.150;2023-05-29T06:42:30;13.00;1.00
14277;DHT22;7222;57.346;12.150;2023-05-29T06:44:57;12.80;99.90
14277;DHT22;7222;57.346;12.150;2023-05-29T06:47:24;13.10;1.00
14277;DHT22;7222;57.346;12.150;2023-05-29T06:49:51;13.30;99.90
14277;DHT22;7222;57.346;12.150;2023-05-29T06:52:18;13.50;1.00
14277;DHT22;7222;57.346;12.150;2023-05-29T06:54:46;13.50;1.00
14277;DHT22;7222;57.346;12.150;2023-05-29T06:57:13;13.70;1.00
14277;DHT22;7222;57.346;12.150;2023-05-29T06:59:40;13.70;99.90
14277;DHT22;7222;57.346;12.150;2023-05-29T07:02:07;13.70;99.90
14277;DHT22;7222;57.346;12.150;2023-05-29T07:04:34;13.80;99.90
14277;DHT22;7222;57.346;12.150;2023-05-29T07:07:01;13.70;1.00
14277;DHT22;7222;57.346;12.150;2023-05-29T07:09:28;14.30;99.90
14277;DHT22;7222;57.346;12.150;2023-05-29T07:11:56;13.90;99.90
14277;DHT22;7222;57.346;12.150;2023-05-29T07:14:23;14.30;99.90
14277;DHT22;7222;57.346;12.150;2023-05-29T07:16:51;14.60;99.90
14277;DHT22;7222;57.346;12.150;2023-05-29T07:19:18;14.90;57.50
14277;DHT22;7222;57.346;12.150;2023-05-29T07:21:45;15.20;1.00
14277;DHT22;7222;57.346;12.150;2023-05-29T07:24:12;14.90;1.00
14277;DHT22;7222;57.346;12.150;2023-05-29T07:26:39;15.00;99.90
14277;DHT22;7222;57.346;12.150;2023-05-29T07:29:07;15.10;99.90
14277;DHT22;7222;57.346;12.150;2023-05-29T07:31:35;15.20;1.00
14277;DHT22;7222;57.346;12.150;2023-05-29T07:34:02;15.10;99.90
14277;DHT22;7222;57.346;12.150;2023-05-29T07:36:56;15.20;99.90
14277;DHT22;7222;57.346;12.150;2023-05-29T07:39:24;14.80;99.90
14277;DHT22;7222;57.346;12.150;2023-05-29T07:41:51;14.60;99.90
14277;DHT22;7222;57.346;12.150;2023-05-29T07:44:20;15.30;1.00
14277;DHT22;7222;57.346;12.150;2023-05-29T07:46:47;16.10;99.90
14277;DHT22;7222;57.346;12.150;2023-05-29T07:49:16;16.40;1.00
14277;DHT22;7222;57.346;12.150;2023-05-29T07:51:43;15.80;99.90
14277;DHT22;7222;57.346;12.150;2023-05-29T07:54:10;15.40;99.90
14277;DHT22;7222;57.346;12.150;2023-05-29T07:56:38;15.90;1.00
14277;DHT22;7222;57.346;12.150;2023-05-29T07:59:06;16.30;99.90
14277;DHT22;7222;57.346;12.150;2023-05-29T08:01:36;15.90;99.90
14277;DHT22;7222;57.346;12.150;2023-05-29T08:04:04;15.10;99.90
14277;DHT22;7222;57.346;12.150;2023-05-29T08:06:31;15.90;1.00
14277;DHT22;7222;57.346;12.150;2023-05-29T08:08:59;16.30;99.90
14277;DHT22;7222;57.346;12.150;2023-05-29T08:11:27;16.50;1.00
14277;DHT22;7222;57.346;12.150;2023-05-29T08:13:54;16.10;21.10
14277;DHT22;7222;57.346;12.150;2023-05-29T08:16:21;15.60;94.00
14277;DHT22;7222;57.346;12.150;2023-05-29T08:19:06;15.30;43.60
14277;DHT22;7222;57.346;12.150;2023-05-29T08:21:33;16.20;1.00
14277;DHT22;7222;57.346;12.150;2023-05-29T08:27:43;15.60;99.90
14277;DHT22;7222;57.346;12.150;2023-05-29T08:30:11;15.90;99.90
14277;DHT22;7222;57.346;12.150;2023-05-29T08:32:39;17.80;9.20
14277;DHT22;7222;57.346;12.150;2023-05-29T08:35:08;17.30;1.00
14277;DHT22;7222;57.346;12.150;2023-05-29T08:37:36;15.80;1.00
14277;DHT22;7222;57.346;12.150;2023-05-29T08:40:04;15.50;30.50
14277;DHT22;7222;57.346;12.150;2023-05-29T08:42:37;15.60;99.90
14277;DHT22;7222;57.346;12.150;2023-05-29T08:45:07;16.70;1.00
14277;DHT22;7222;57.346;12.150;2023-05-29T08:47:40;16.80;1.00
14277;DHT22;7222;57.346;12.150;2023-05-29T08:50:09;18.00;1.00
14277;DHT22;7222;57.346;12.150;2023-05-29T08:52:37;18.10;99.90
14277;DHT22;7222;57.346;12.150;2023-05-29T08:55:07;18.60;1.00
14277;DHT22;7222;57.346;12.150;2023-05-29T08:57:36;18.70;1.00
14277;DHT22;7222;57.346;12.150;2023-05-29T09:00:05;19.70;1.00
14277;DHT22;7222;57.346;12.150;2023-05-29T09:02:37;21.30;1.00
14277;DHT22;7222;57.346;12.150;2023-05-29T09:05:05;20.40;1.00
14277;DHT22;7222;57.346;12.150;2023-05-29T09:07:33;21.00;1.00
14277;DHT22;7222;57.346;12.150;2023-05-29T09:10:04;20.20;1.00
14277;DHT22;7222;57.346;12.150;2023-05-29T09:12:32;19.20;1.00
14277;DHT22;7222;57.346;12.150;2023-05-29T09:14:59;19.60;1.00
14277;DHT22;7222;57.346;12.150;2023-05-29T09:17:30;20.60;1.00
14277;DHT22;7222;57.346;12.150;2023-05-29T09:19:58;20.40;1.00
14277;DHT22;7222;57.346;12.150;2023-05-29T09:22:26;20.90;1.00
14277;DHT22;7222;57.346;12.150;2023-05-29T09:24:54;19.90;1.00
14277;DHT22;7222;57.346;12.150;2023-05-29T09:27:22;19.20;1.00
14277;DHT22;7222;57.346;12.150;2023-05-29T09:29:48;21.00;1.00
14277;DHT22;7222;57.346;12.150;2023-05-29T09:32:16;21.20;1.00
14277;DHT22;7222;57.346;12.150;2023-05-29T09:34:44;21.80;1.00
14277;DHT22;7222;57.346;12.150;2023-05-29T09:37:12;22.80;1.00
14277;DHT22;7222;57.346;12.150;2023-05-29T09:39:48;19.90;1.00
14277;DHT22;7222;57.346;12.150;2023-05-29T09:42:18;21.80;1.00
14277;DHT22;7222;57.346;12.150;2023-05-29T09:44:48;19.30;1.00
14277;DHT22;7222;57.346;12.150;2023-05-29T09:47:17;20.20;1.00
14277;DHT22;7222;57.346;12.150;2023-05-29T09:49:45;20.70;1.00
14277;DHT22;7222;57.346;12.150;2023-05-29T09:52:13;21.20;1.00
14277;DHT22;7222;57.346;12.150;2023-05-29T09:54:42;20.40;1.00
14277;DHT22;7222;57.346;12.150;2023-05-29T09:57:12;19.40;1.00
14277;DHT22;7222;57.346;12.150;2023-05-29T09:59:41;19.70;1.00
14277;DHT22;7222;57.346;12.150;2023-05-29T10:02:12;21.70;1.00
14277;DHT22;7222;57.346;12.150;2023-05-29T10:04:41;22.60;1.00
14277;DHT22;7222;57.346;12.150;2023-05-29T10:07:12;24.20;1.00
14277;DHT22;7222;57.346;12.150;2023-05-29T10:09:42;24.60;1.00
14277;DHT22;7222;57.346;12.150;2023-05-29T10:12:15;23.00;1.00
14277;DHT22;7222;57.346;12.150;2023-05-29T10:14:45;23.90;1.00
14277;DHT22;7222;57.346;12.150;2023-05-29T10:17:14;24.70;1.00
14277;DHT22;7222;57.346;12.150;2023-05-29T10:19:42;22.50;1.00
14277;DHT22;7222;57.346;12.150;2023-05-29T10:22:11;23.40;1.00
14277;DHT22;7222;57.346;12.150;2023-05-29T10:24:39;23.10;1.00
14277;DHT22;7222;57.346;12.150;2023-05-29T10:27:07;23.80;1.00
14277;DHT22;7222;57.346;12.150;2023-05-29T10:29:37;24.20;1.00
14277;DHT22;7222;57.346;12.150;2023-05-29T10:32:19;23.70;1.00
14277;DHT22;7222;57.346;12.150;2023-05-29T10:34:56;21.40;1.00
14277;DHT22;7222;57.346;12.150;2023-05-29T10:37:32;21.80;1.00
14277;DHT22;7222;57.346;12.150;2023-05-29T10:40:04;22.60;1.00
14277;DHT22;7222;57.346;12.150;2023-05-29T10:42:45;23.20;1.00
14277;DHT22;7222;57.346;12.150;2023-05-29T10:48:40;21.80;1.00
14277;DHT22;7222;57.346;12.150;2023-05-29T10:51:08;23.10;1.00
14277;DHT22;7222;57.346;12.150;2023-05-29T10:53:35;23.30;1.00
14277;DHT22;7222;57.346;12.150;2023-05-29T10:56:08;22.70;99.90
14277;DHT22;7222;57.346;12.150;2023-05-29T10:58:37;23.20;1.00
14277;DHT22;7222;57.346;12.150;2023-05-29T11:01:08;25.80;1.00
14277;DHT22;7222;57.346;12.150;2023-05-29T11:03:35;26.70;1.00
14277;DHT22;7222;57.346;12.150;2023-05-29T11:06:04;26.20;99.90
14277;DHT22;7222;57.346;12.150;2023-05-29T11:08:34;21.70;99.90
14277;DHT22;7222;57.346;12.150;2023-05-29T11:11:02;25.10;1.00
14277;DHT22;7222;57.346;12.150;2023-05-29T11:13:32;25.00;1.00
14277;DHT22;7222;57.346;12.150;2023-05-29T11:16:11;26.20;1.00
14277;DHT22;7222;57.346;12.150;2023-05-29T11:18:40;23.70;1.00
14277;DHT22;7222;57.346;12.150;2023-05-29T11:21:18;23.40;1.00
14277;DHT22;7222;57.346;12.150;2023-05-29T11:23:50;25.50;1.00
14277;DHT22;7222;57.346;12.150;2023-05-29T11:26:18;25.70;1.00
14277;DHT22;7222;57.346;12.150;2023-05-29T11:28:45;25.30;99.90
14277;DHT22;7222;57.346;12.150;2023-05-29T11:31:13;22.20;1.00
14277;DHT22;7222;57.346;12.150;2023-05-29T11:33:47;24.90;1.00
14277;DHT22;7222;57.346;12.150;2023-05-29T11:36:17;25.60;1.00
14277;DHT22;7222;57.346;12.150;2023-05-29T11:38:45;24.00;1.00
14277;DHT22;7222;57.346;12.150;2023-05-29T11:41:11;22.90;99.90
14277;DHT22;7222;57.346;12.150;2023-05-29T11:43:38;23.20;99.90
14277;DHT22;7222;57.346;12.150;2023-05-29T11:46:18;23.30;99.90
14277;DHT22;7222;57.346;12.150;2023-05-29T11:48:46;24.00;1.00
14277;DHT22;7222;57.346;12.150;2023-05-29T11:51:13;23.10;99.90
14277;DHT22;7222;57.346;12.150;2023-05-29T11:53:42;23.90;1.00
14277;DHT22;7222;57.346;12.150;2023-05-29T11:56:10;24.60;99.90
14277;DHT22;7222;57.346;12.150;2023-05-29T11:58:37;23.90;99.90
14277;DHT22;7222;57.346;12.150;2023-05-29T12:01:04;22.40;99.90
14277;DHT22;7222;57.346;12.150;2023-05-29T12:03:37;22.40;1.00
14277;DHT22;7222;57.346;12.150;2023-05-29T12:06:05;23.50;1.00
14277;DHT22;7222;57.346;12.150;2023-05-29T12:08:33;25.30;99.90
14277;DHT22;7222;57.346;12.150;2023-05-29T12:11:01;21.30;99.90
14277;DHT22;7222;57.346;12.150;2023-05-29T12:13:28;22.80;99.90
14277;DHT22;7222;57.346;12.150;2023-05-29T12:15:57;21.30;99.90
14277;DHT22;7222;57.346;12.150;2023-05-29T12:18:25;21.20;1.00
14277;DHT22;7222;57.346;12.150;2023-05-29T12:20:57;20.90;1.00
14277;DHT22;7222;57.346;12.150;2023-05-29T12:23:24;24.40;1.00
14277;DHT22;7222;57.346;12.150;2023-05-29T12:25:51;22.40;1.00
14277;DHT22;7222;57.346;12.150;2023-05-29T12:28:20;21.30;1.00
14277;DHT22;7222;57.346;12.150;2023-05-29T12:30:48;21.80;1.00
14277;DHT22;7222;57.346;12.150;2023-05-29T12:33:25;22.80;99.90
14277;DHT22;7222;57.346;12.150;2023-05-29T12:35:53;21.70;99.90
14277;DHT22;7222;57.346;12.150;2023-05-29T12:38:22;21.70;1.00
14277;DHT22;7222;57.346;12.150;2023-05-29T12:40:49;22.10;1.00
14277;DHT22;7222;57.346;12.150;2023-05-29T12:43:17;22.90;1.00
14277;DHT22;7222;57.346;12.150;2023-05-29T12:45:46;20.40;1.00
14277;DHT22;7222;57.346;12.150;2023-05-29T12:48:20;22.60;1.00
14277;DHT22;7222;57.346;12.150;2023-05-29T12:50:49;22.30;1.00
14277;DHT22;7222;57.346;12.150;2023-05-29T12:53:16;22.00;1.00
14277;DHT22;7222;57.346;12.150;2023-05-29T12:55:44;22.80;1.00
14277;DHT22;7222;57.346;12.150;2023-05-29T12:58:13;22.50;1.00
14277;DHT22;7222;57.346;12.150;2023-05-29T13:00:42;23.40;1.00
14277;DHT22;7222;57.346;12.150;2023-05-29T13:03:10;21.70;99.90
14277;DHT22;7222;57.346;12.150;2023-05-29T13:05:37;18.90;99.90
14277;DHT22;7222;57.346;12.150;2023-05-29T13:08:05;19.60;1.00
14277;DHT22;7222;57.346;12.150;2023-05-29T13:10:33;20.30;1.00
14277;DHT22;7222;57.346;12.150;2023-05-29T13:13:01;21.10;1.00
14277;DHT22;7222;57.346;12.150;2023-05-29T13:15:28;23.00;1.00
14277;DHT22;7222;57.346;12.150;2023-05-29T13:17:55;19.90;1.00
14277;DHT22;7222;57.346;12.150;2023-05-29T13:20:25;20.70;1.00
14277;DHT22;7222;57.346;12.150;2023-05-29T13:22:52;20.40;1.00
14277;DHT22;7222;57.346;12.150;2023-05-29T13:25:20;20.00;1.00
14277;DHT22;7222;57.346;12.150;2023-05-29T13:27:49;21.40;1.00
14277;DHT22;7222;57.346;12.150;2023-05-29T13:30:17;21.70;1.00
14277;DHT22;7222;57.346;12.150;2023-05-29T13:32:44;21.90;1.00
14277;DHT22;7222;57.346;12.150;2023-05-29T13:35:11;19.90;1.00
14277;DHT22;7222;57.346;12.150;2023-05-29T13:37:39;21.40;1.00
14277;DHT22;7222;57.346;12.150;2023-05-29T13:40:07;20.70;1.00
14277;DHT22;7222;57.346;12.150;2023-05-29T13:42:36;20.70;1.00
14277;DHT22;7222;57.346;12.150;2023-05-29T13:45:04;20.40;1.00
14277;DHT22;7222;57.346;12.150;2023-05-29T13:47:31;21.20;1.00
14277;DHT22;7222;57.346;12.150;2023-05-29T13:49:58;20.70;99.90
14277;DHT22;7222;57.346;12.150;2023-05-29T13:52:25;19.40;99.90
14277;DHT22;7222;57.346;12.150;2023-05-29T13:54:54;19.30;1.00
14277;DHT22;7222;57.346;12.150;2023-05-29T13:57:20;20.80;1.00
14277;DHT22;7222;57.346;12.150;2023-05-29T13:59:47;21.50;1.00
14277;DHT22;7222;57.346;12.150;2023-05-29T14:02:14;20.80;99.90
14277;DHT22;7222;57.346;12.150;2023-05-29T14:04:42;21.70;1.00
14277;DHT22;7222;57.346;12.150;2023-05-29T14:07:09;22.00;1.00
14277;DHT22;7222;57.346;12.150;2023-05-29T14:09:36;19.50;1.00
14277;DHT22;7222;57.346;12.150;2023-05-29T14:12:05;20.50;1.00
14277;DHT22;7222;57.346;12.150;2023-05-29T14:14:32;21.10;1.00
14277;DHT22;7222;57.346;12.150;2023-05-29T14:17:00;21.20;1.00
14277;DHT22;7222;57.346;12.150;2023-05-29T14:19:28;21.90;1.00
14277;DHT22;7222;57.346;12.150;2023-05-29T14:21:55;22.10;1.00
14277;DHT22;7222;57.346;12.150;2023-05-29T14:24:22;21.40;1.00
14277;DHT22;7222;57.346;12.150;2023-05-29T14:26:50;20.60;1.00
14277;DHT22;7222;57.346;12.150;2023-05-29T14:29:18;20.00;1.00
14277;DHT22;7222;57.346;12.150;2023-05-29T14:31:45;20.70;1.00
14277;DHT22;7222;57.346;12.150;2023-05-29T14:34:12;20.30;1.00
14277;DHT22;7222;57.346;12.150;2023-05-29T14:36:39;19.90;1.00
14277;DHT22;7222;57.346;12.150;2023-05-29T14:39:09;19.30;1.00
14277;DHT22;7222;57.346;12.150;2023-05-29T14:41:37;21.00;1.00
14277;DHT22;7222;57.346;12.150;2023-05-29T14:44:04;22.30;1.00
14277;DHT22;7222;57.346;12.150;2023-05-29T14:46:32;19.90;1.00
14277;DHT22;7222;57.346;12.150;2023-05-29T14:49:00;20.30;1.00
14277;DHT22;7222;57.346;12.150;2023-05-29T14:51:27;19.10;1.00
14277;DHT22;7222;57.346;12.150;2023-05-29T14:53:54;18.80;1.00
14277;DHT22;7222;57.346;12.150;2023-05-29T14:56:21;19.20;1.00
14277;DHT22;7222;57.346;12.150;2023-05-29T14:58:48;18.80;1.00
14277;DHT22;7222;57.346;12.150;2023-05-29T15:01:15;19.30;1.00
14277;DHT22;7222;57.346;12.150;2023-05-29T15:03:44;20.40;1.00
14277;DHT22;7222;57.346;12.150;2023-05-29T15:06:11;21.60;1.00
14277;DHT22;7222;57.346;12.150;2023-05-29T15:08:38;20.50;1.00
14277;DHT22;7222;57.346;12.150;2023-05-29T15:11:07;19.20;1.00
14277;DHT22;7222;57.346;12.150;2023-05-29T15:13:36;20.30;1.00
14277;DHT22;7222;57.346;12.150;2023-05-29T15:16:03;21.80;1.00
14277;DHT22;7222;57.346;12.150;2023-05-29T15:18:30;21.40;99.90
14277;DHT22;7222;57.346;12.150;2023-05-29T15:20:59;21.70;1.00
14277;DHT22;7222;57.346;12.150;2023-05-29T15:23:26;21.50;99.90
14277;DHT22;7222;57.346;12.150;2023-05-29T15:25:53;20.40;99.90
14277;DHT22;7222;57.346;12.150;2023-05-29T15:28:20;20.00;99.90
14277;DHT22;7222;57.346;12.150;2023-05-29T15:30:47;20.00;1.00
14277;DHT22;7222;57.346;12.150;2023-05-29T15:33:15;19.80;99.90
14277;DHT22;7222;57.346;12.150;2023-05-29T15:35:42;18.20;99.90
14277;DHT22;7222;57.346;12.150;2023-05-29T15:38:10;18.10;99.90
14277;DHT22;7222;57.346;12.150;2023-05-29T15:40:38;19.70;1.00
14277;DHT22;7222;57.346;12.150;2023-05-29T15:43:05;19.70;1.00
14277;DHT22;7222;57.346;12.150;2023-05-29T15:45:32;19.70;1.00
14277;DHT22;7222;57.346;12.150;2023-05-29T15:47:59;19.30;1.00
14277;DHT22;7222;57.346;12.150;2023-05-29T15:50:26;20.90;1.00
14277;DHT22;7222;57.346;12.150;2023-05-29T15:52:53;19.60;99.90
14277;DHT22;7222;57.346;12.150;2023-05-29T15:55:21;19.40;99.90
14277;DHT22;7222;57.346;12.150;2023-05-29T15:57:48;19.80;1.00
14277;DHT22;7222;57.346;12.150;2023-05-29T16:00:16;19.10;1.00